createdAt,value
2018-08-30T06:31:25.159Z,28.9
2018-08-30T06:32:15.231Z,28.9
2018-08-30T06:33:05.265Z,29.1
2018-08-30T06:33:55.326Z,29.2
2018-08-30T06:34:45.357Z,29.3
2018-08-30T06:35:35.453Z,29.4
2018-08-30T06:36:25.632Z,29.6
2018-08-30T06:37:15.575Z,29.7
2018-08-30T06:38:05.089Z,29.9
2018-08-30T06:38:55.674Z,29.9
2018-08-30T06:39:45.485Z,30.1
2018-08-30T06:40:35.859Z,30.3
2018-08-30T06:41:25.967Z,30.3
2018-08-30T06:42:15.984Z,30.4
2018-08-30T06:43:06.049Z,30.6
2018-08-30T06:43:56.319Z,30.7
2018-08-30T06:44:45.877Z,30.8
2018-08-30T06:45:35.959Z,30.8
2018-08-30T06:46:26.011Z,30.9
2018-08-30T06:47:16.371Z,31.1
2018-08-30T06:48:06.421Z,31.3
2018-08-30T06:48:56.382Z,31.3
2018-08-30T06:49:46.607Z,31.3
2018-08-30T06:50:36.631Z,31.4
2018-08-30T06:51:26.681Z,31.6
2018-08-30T06:52:16.787Z,31.8
2018-08-30T06:53:06.813Z,31.9
2018-08-30T06:53:56.586Z,32
2018-08-30T06:54:46.643Z,32.1
2018-08-30T06:55:36.998Z,32.3
2018-08-30T06:56:27.580Z,32.4
2018-08-30T06:57:17.161Z,32.5
2018-08-30T06:58:07.203Z,32.6
2018-08-30T06:58:56.968Z,32.8
2018-08-30T06:59:47.343Z,32.9
2018-08-30T07:00:37.112Z,33
2018-08-30T07:01:27.490Z,33.1
2018-08-30T07:02:17.784Z,33.2
2018-08-30T07:03:07.303Z,33.4
2018-08-30T07:03:57.728Z,33.5
2018-08-30T07:04:47.717Z,33.6
2018-08-30T07:05:37.816Z,33.8
2018-08-30T07:06:27.843Z,33.8
2018-08-30T07:07:17.615Z,34
2018-08-30T07:08:07.944Z,34.1
2018-08-30T07:08:58.027Z,34.2
2018-08-30T07:09:48.080Z,34.3
2018-08-30T07:10:37.876Z,34.4
2018-08-30T07:11:28.212Z,34.5
2018-08-30T07:12:18.300Z,34.6
2018-08-30T07:13:08.347Z,34.8
2018-08-30T07:13:58.468Z,34.9
2018-08-30T07:14:48.279Z,35.1
2018-08-30T07:15:38.537Z,35.2
2018-08-30T07:16:28.605Z,35.3
2018-08-30T07:17:18.915Z,35.4
2018-08-30T07:18:08.454Z,35.6
2018-08-30T07:18:58.520Z,35.7
2018-08-30T07:19:48.579Z,35.8
2018-08-30T07:20:38.924Z,35.9
2018-08-30T07:21:29.011Z,36.1
2018-08-30T07:22:19.059Z,36.2
2018-08-30T07:23:09.151Z,36.4
2018-08-30T07:23:59.185Z,36.5
2018-08-30T07:24:49.259Z,36.6
2018-08-30T07:25:39.316Z,36.8
2018-08-30T07:26:29.091Z,36.9
2018-08-30T07:27:19.448Z,36.7
2018-08-30T07:28:09.540Z,36.4
2018-08-30T07:28:59.314Z,36.1
2018-08-30T07:29:49.373Z,35.8
2018-08-30T07:30:39.698Z,35.6
2018-08-30T07:31:29.761Z,35.5
2018-08-30T07:32:19.541Z,35.5
2018-08-30T07:33:09.893Z,35.6
2018-08-30T07:33:59.911Z,35.8
2018-08-30T07:34:50.388Z,35.9
2018-08-30T07:35:40.096Z,36.1
2018-08-30T07:36:29.872Z,36.3
2018-08-30T07:37:20.716Z,36.4
2018-08-30T07:38:10.289Z,36.5
2018-08-30T07:39:00.346Z,36.6
2018-08-30T07:39:50.419Z,36.8
2018-08-30T07:40:40.185Z,36.9
2018-08-30T07:41:30.546Z,37.1
2018-08-30T07:42:20.614Z,37.3
2018-08-30T07:43:10.666Z,37.4
2018-08-30T07:44:00.983Z,37.6
2018-08-30T07:44:50.799Z,37.8
2018-08-30T07:45:40.866Z,37.9
2018-08-30T07:46:30.916Z,38.1
2018-08-30T07:47:21.353Z,38.2
2018-08-30T07:48:11.056Z,38.4
2018-08-30T07:49:01.121Z,38.6
2018-08-30T07:49:51.185Z,38.7
2018-08-30T07:50:41.320Z,38.9
2018-08-30T07:51:31.313Z,39.1
2018-08-30T07:52:21.378Z,39.2
2018-08-30T07:53:11.440Z,39.4
2018-08-30T07:54:01.512Z,39.6
2018-08-30T07:54:51.565Z,39.7
2018-08-30T07:55:41.633Z,39.8
2018-08-30T07:56:31.702Z,39.9
2018-08-30T07:57:21.971Z,40.1
2018-08-30T07:58:11.848Z,40.3
2018-08-30T07:59:01.890Z,40.4
2018-08-30T07:59:52.147Z,40.6
2018-08-30T08:00:41.725Z,40.8
2018-08-30T08:01:32.073Z,40.9
2018-08-30T08:02:21.852Z,41
2018-08-30T08:03:12.459Z,41.1
2018-08-30T08:04:02.284Z,41.3
2018-08-30T08:04:52.336Z,41.4
2018-08-30T08:05:42.396Z,41.6
2018-08-30T08:06:32.485Z,41.7
2018-08-30T08:07:22.717Z,41.8
2018-08-30T08:08:12.600Z,41.9
2018-08-30T08:09:02.426Z,42
2018-08-30T08:09:52.740Z,42.1
2018-08-30T08:10:42.804Z,42.3
2018-08-30T08:11:32.863Z,42.4
2018-08-30T08:12:22.919Z,42.6
2018-08-30T08:13:12.993Z,42.6
2018-08-30T08:14:02.765Z,42.8
2018-08-30T08:14:52.836Z,42.9
2018-08-30T08:15:43.198Z,43.1
2018-08-30T08:16:33.245Z,43.2
2018-08-30T08:17:23.301Z,43.3
2018-08-30T08:18:13.368Z,43.4
2018-08-30T08:19:03.426Z,43.6
2018-08-30T08:19:53.508Z,43.7
2018-08-30T08:20:43.568Z,43.8
2018-08-30T08:21:33.630Z,43.9
2018-08-30T08:22:23.710Z,44.1
2018-08-30T08:23:13.758Z,44.2
2018-08-30T08:24:03.836Z,44.3
2018-08-30T08:24:54.348Z,44.4
2018-08-30T08:25:43.957Z,44.5
2018-08-30T08:26:33.730Z,44.6
2018-08-30T08:27:24.081Z,44.8
2018-08-30T08:28:14.149Z,44.9
2018-08-30T08:29:04.262Z,45.1
2018-08-30T08:29:54.335Z,45.1
2018-08-30T08:30:44.340Z,45.3
2018-08-30T08:31:34.413Z,45.4
2018-08-30T08:32:24.469Z,45.6
2018-08-30T08:33:14.542Z,45.7
2018-08-30T08:34:04.857Z,45.8
2018-08-30T08:34:54.926Z,45.9
2018-08-30T08:35:44.737Z,46
2018-08-30T08:36:34.804Z,46.1
2018-08-30T08:37:24.869Z,46.3
2018-08-30T08:38:14.637Z,46.4
2018-08-30T08:39:05.003Z,46.5
2018-08-30T08:39:55.049Z,46.6
2018-08-30T08:40:45.120Z,46.8
2018-08-30T08:41:35.171Z,46.9
2018-08-30T08:42:25.244Z,47
2018-08-30T08:43:15.309Z,47.1
2018-08-30T08:44:05.670Z,47.2
2018-08-30T08:44:55.439Z,47.4
2018-08-30T08:45:45.770Z,47.4
2018-08-30T08:46:35.566Z,47.6
2018-08-30T08:47:25.654Z,47.7
2018-08-30T08:48:15.425Z,47.8
2018-08-30T08:49:05.474Z,47.9
2018-08-30T08:49:55.829Z,48.1
2018-08-30T08:50:45.893Z,48.2
2018-08-30T08:51:35.979Z,48.3
2018-08-30T08:52:25.749Z,48.4
2018-08-30T08:53:16.090Z,48.5
2018-08-30T08:54:06.161Z,48.6
2018-08-30T08:54:56.205Z,48.8
2018-08-30T08:55:46.001Z,48.9
2018-08-30T08:56:36.377Z,49
2018-08-30T08:57:26.137Z,49.1
2018-08-30T08:58:16.500Z,49.3
2018-08-30T09:14:39.445Z,51.5
2018-08-30T09:15:28.936Z,51.6
2018-08-30T09:16:19.001Z,51.7
2018-08-30T09:17:09.060Z,51.9
2018-08-30T09:18:48.918Z,52.1
2018-08-30T09:19:39.245Z,52.2
2018-08-30T09:20:28.748Z,52.3
2018-08-30T09:22:09.449Z,52.5
2018-08-30T09:22:58.973Z,52.6
2018-08-30T09:23:49.570Z,52.7
2018-08-30T09:24:39.358Z,52.8
2018-08-30T09:25:29.746Z,52.9
2018-08-30T09:26:19.797Z,53
2018-08-30T09:27:10.165Z,53.1
2018-08-30T09:27:59.633Z,53.3
2018-08-30T09:28:49.972Z,53.3
2018-08-30T09:29:40.040Z,53.4
2018-08-30T09:30:29.812Z,53.5
2018-08-30T09:31:20.155Z,53.6
2018-08-30T09:32:10.224Z,53.8
2018-08-30T09:33:00.294Z,53.8
2018-08-30T09:33:50.613Z,53.9
2018-08-30T09:34:40.428Z,54.1
2018-08-30T09:35:30.495Z,54.1
2018-08-30T09:36:20.260Z,54.2
2018-08-30T09:37:10.860Z,54.3
2018-08-30T09:38:00.684Z,54.4
2018-08-30T09:38:50.477Z,54.5
2018-08-30T09:39:40.819Z,54.6
2018-08-30T09:40:30.879Z,54.7
2018-08-30T09:41:20.676Z,54.8
2018-08-30T09:42:11.062Z,54.9
2018-08-30T09:43:00.788Z,54.9
2018-08-30T09:43:51.452Z,55
2018-08-30T09:44:40.936Z,55.1
2018-08-30T09:45:30.983Z,55.3
2018-08-30T09:46:21.328Z,55.4
2018-08-30T09:47:11.391Z,55.5
2018-08-30T09:48:01.468Z,55.6
2018-08-30T09:48:51.256Z,55.6
2018-08-30T09:49:41.843Z,55.7
2018-08-30T09:50:31.384Z,55.8
2018-08-30T09:51:21.156Z,55.9
2018-08-30T09:52:12.037Z,56
2018-08-30T09:53:01.571Z,56.1
2018-08-30T09:53:51.635Z,56.2
2018-08-30T09:54:41.727Z,56.3
2018-08-30T09:55:31.801Z,56.4
2018-08-30T09:56:22.387Z,56.4
2018-08-30T09:57:12.619Z,56.6
2018-08-30T09:58:01.965Z,56.6
2018-08-30T09:58:52.310Z,56.8
2018-08-30T09:59:42.375Z,56.8
2018-08-30T10:00:32.457Z,56.9
2018-08-30T10:01:22.459Z,57
2018-08-30T10:02:12.570Z,57.1
2018-08-30T10:03:02.377Z,57.2
2018-08-30T10:03:53.024Z,57.3
2018-08-30T10:04:43.175Z,57.3
2018-08-30T10:05:32.552Z,57.4
2018-08-30T10:06:22.890Z,57.5
2018-08-30T10:07:12.958Z,57.6
2018-08-30T10:08:03.037Z,57.7
2018-08-30T10:09:43.156Z,57.8
2018-08-30T10:10:33.224Z,57.9
2018-08-30T10:11:23.292Z,58
2018-08-30T10:12:13.059Z,58.1
2018-08-30T10:13:03.137Z,58.2
2018-08-30T10:13:53.474Z,58.3
2018-08-30T10:14:43.260Z,58.4
2018-08-30T10:17:13.807Z,58.7
2018-08-30T10:18:03.755Z,58.8
2018-08-30T10:18:53.864Z,58.8
2018-08-30T10:19:43.656Z,58.9
2018-08-30T10:20:34.009Z,59
2018-08-30T10:21:23.949Z,59.1
2018-08-30T10:22:14.136Z,59.2
2018-08-30T10:23:03.980Z,59.2
2018-08-30T10:23:54.296Z,59.2
2018-08-30T10:24:44.332Z,59.3
2018-08-30T10:25:34.539Z,59.5
2018-08-30T10:26:24.451Z,59.6
2018-08-30T10:27:14.529Z,59.6
2018-08-30T10:28:04.891Z,59.7
2018-08-30T10:28:54.101Z,59.8
2018-08-30T10:29:44.719Z,59.9
2018-08-30T10:30:35.178Z,59.9
2018-08-30T10:31:24.781Z,60
2018-08-30T10:32:14.913Z,60.1
2018-08-30T10:33:05.057Z,60.2
2018-08-30T10:33:55.061Z,60.3
2018-08-30T10:34:45.103Z,60.3
2018-08-30T10:35:35.181Z,60.4
2018-08-30T10:36:25.247Z,60.4
2018-08-30T10:37:15.318Z,60.6
2018-08-30T10:38:05.363Z,60.6
2018-08-30T10:38:55.429Z,60.7
2018-08-30T10:39:45.498Z,60.8
2018-08-30T10:40:35.565Z,60.9
2018-08-30T10:41:25.637Z,60.9
2018-08-30T10:42:15.720Z,61
2018-08-30T10:43:06.288Z,61.1
2018-08-30T10:43:55.272Z,61.1
2018-08-30T10:44:45.904Z,61.2
2018-08-30T10:45:35.106Z,61.3
2018-08-30T10:46:26.018Z,61.3
2018-08-30T10:47:15.805Z,61.4
2018-08-30T10:48:06.694Z,61.4
2018-08-30T10:48:56.234Z,61.5
2018-08-30T10:49:46.229Z,61.6
2018-08-30T10:50:36.347Z,61.6
2018-08-30T10:51:26.426Z,61.8
2018-08-30T10:52:16.477Z,61.8
2018-08-30T10:53:06.509Z,61.9
2018-08-30T10:53:56.604Z,61.9
2018-08-30T10:54:46.664Z,62
2018-08-30T10:55:36.454Z,62.1
2018-08-30T10:56:27.592Z,62.2
2018-08-30T10:57:16.874Z,62.3
2018-08-30T10:58:08.242Z,62.3
2018-08-30T10:58:57.002Z,62.4
2018-08-30T10:59:47.072Z,62.4
2018-08-30T11:00:37.524Z,62.6
2018-08-30T11:01:27.419Z,62.6
2018-08-30T11:02:17.261Z,62.7
2018-08-30T11:03:07.848Z,62.8
2018-08-30T11:03:57.241Z,62.9
2018-08-30T11:04:48.267Z,62.9
2018-08-30T11:05:37.246Z,63
2018-08-30T11:06:31.822Z,63.1
2018-08-30T11:07:18.796Z,63.1
2018-08-30T11:08:07.594Z,63.2
2018-08-30T11:08:57.227Z,63.2
2018-08-30T11:09:48.427Z,63.3
2018-08-30T11:10:38.561Z,63.3
2018-08-30T11:11:28.367Z,63.4
2018-08-30T11:12:18.218Z,63.4
2018-08-30T11:13:08.966Z,63.5
2018-08-30T11:13:58.603Z,63.6
2018-08-30T11:14:48.453Z,63.7
2018-08-30T11:15:38.313Z,63.8
2018-08-30T11:16:28.781Z,63.8
2018-08-30T11:17:19.058Z,63.9
2018-08-30T11:18:08.675Z,63.9
2018-08-30T11:18:58.793Z,64
2018-08-30T11:19:48.358Z,64
2018-08-30T11:20:38.695Z,64.1
2018-08-30T11:21:29.260Z,64.1
2018-08-30T11:22:18.824Z,64.3
2018-08-30T11:23:09.098Z,64.3
2018-08-30T11:23:58.965Z,64.4
2018-08-30T11:24:48.737Z,64.4
2018-08-30T11:25:39.192Z,64.5
2018-08-30T11:26:28.862Z,64.5
2018-08-30T11:27:19.232Z,64.6
2018-08-30T11:28:09.269Z,64.7
2018-08-30T11:28:59.535Z,64.8
2018-08-30T11:29:48.864Z,64.8
2018-08-30T11:30:39.182Z,64.9
2018-08-30T11:31:29.270Z,64.9
2018-08-30T11:32:19.604Z,65
2018-08-30T11:33:09.871Z,65
2018-08-30T11:33:59.767Z,65.1
2018-08-30T11:34:49.844Z,65.1
2018-08-30T11:35:39.879Z,65.2
2018-08-30T11:36:29.659Z,65.3
2018-08-30T11:37:20.009Z,65.4
2018-08-30T11:38:09.550Z,65.4
2018-08-30T11:38:59.578Z,65.4
2018-08-30T11:39:50.186Z,65.5
2018-08-30T11:40:40.294Z,65.6
2018-08-30T11:41:30.949Z,65.6
2018-08-30T11:42:20.315Z,65.7
2018-08-30T11:43:10.363Z,65.8
2018-08-30T11:44:00.819Z,65.8
2018-08-30T11:44:50.581Z,65.9
2018-08-30T11:45:41.072Z,66
2018-08-30T11:46:30.702Z,66.1
2018-08-30T11:47:20.491Z,66.1
2018-08-30T11:48:10.580Z,66.1
2018-08-30T11:49:00.924Z,66.1
2018-08-30T11:49:50.959Z,66.3
2018-08-30T11:50:41.049Z,66.3
2018-08-30T11:51:31.111Z,66.3
2018-08-30T11:52:21.224Z,66.4
2018-08-30T11:53:11.283Z,66.4
2018-08-30T11:54:01.016Z,66.5
2018-08-30T11:54:51.376Z,66.5
2018-08-30T11:55:41.431Z,66.6
2018-08-30T11:56:31.538Z,66.6
2018-08-30T11:57:21.288Z,66.7
2018-08-30T11:58:11.615Z,66.7
2018-08-30T11:59:01.689Z,66.8
2018-08-30T11:59:51.751Z,66.8
2018-08-30T12:00:42.003Z,66.9
2018-08-30T12:01:31.602Z,66.9
2018-08-30T12:02:22.198Z,66.9
2018-08-30T12:03:12.093Z,67
2018-08-30T12:04:02.073Z,67
2018-08-30T12:04:52.482Z,67.1
2018-08-30T12:05:42.197Z,67.1
2018-08-30T12:06:32.010Z,67.2
2018-08-30T12:07:22.383Z,67.2
2018-08-30T12:08:12.250Z,67.2
2018-08-30T12:09:02.269Z,67.3
2018-08-30T12:10:07.339Z,67.3
2018-08-30T12:10:43.035Z,67.3
2018-08-30T12:11:33.022Z,67.4
2018-08-30T12:12:22.733Z,67.4
2018-08-30T12:13:12.525Z,67.4
2018-08-30T12:14:02.295Z,67.4
2018-08-30T12:14:52.927Z,67.5
2018-08-30T12:15:42.960Z,67.5
2018-08-30T12:16:33.094Z,67.6
2018-08-30T12:17:23.139Z,67.6
2018-08-30T12:18:13.614Z,67.6
2018-08-30T12:19:02.687Z,67.6
2018-08-30T12:19:53.337Z,67.6
2018-08-30T12:20:43.821Z,67.7
2018-08-30T12:21:48.370Z,67.8
2018-08-30T12:22:23.511Z,67.8
2018-08-30T12:23:13.311Z,67.8
2018-08-30T12:24:03.647Z,67.8
2018-08-30T12:24:53.714Z,67.8
2018-08-30T12:25:43.766Z,67.8
2018-08-30T12:26:33.851Z,67.8
2018-08-30T12:27:23.702Z,67.8
2018-08-30T12:28:13.756Z,67.8
2018-08-30T12:29:04.192Z,67.9
2018-08-30T12:29:54.239Z,68
2018-08-30T12:30:43.992Z,68
2018-08-30T12:31:34.571Z,68.1
2018-08-30T12:32:24.470Z,68.1
2018-08-30T12:33:14.486Z,68.1
2018-08-30T12:34:04.868Z,68.1
2018-08-30T12:34:54.481Z,68.1
2018-08-30T12:35:44.684Z,68.2
2018-08-30T12:36:34.756Z,68.1
2018-08-30T12:37:24.931Z,68.1
2018-08-30T12:38:14.814Z,68.2
2018-08-30T12:39:05.051Z,68.2
2018-08-30T12:39:55.579Z,68.3
2018-08-30T12:40:44.820Z,68.3
2018-08-30T12:41:34.902Z,68.3
2018-08-30T12:42:24.982Z,68.3
2018-08-30T12:43:14.851Z,68.3
2018-08-30T12:44:05.303Z,68.3
2018-08-30T12:44:55.397Z,68.3
2018-08-30T12:45:45.116Z,68.4
2018-08-30T12:46:35.230Z,68.4
2018-08-30T12:47:25.281Z,68.4
2018-08-30T12:48:15.617Z,68.4
2018-08-30T12:49:05.427Z,68.4
2018-08-30T12:49:55.747Z,68.5
2018-08-30T12:50:46.576Z,68.5
2018-08-30T12:51:37.122Z,68.4
2018-08-30T12:52:26.085Z,68.4
2018-08-30T12:53:16.650Z,68.5
2018-08-30T12:54:06.749Z,68.4
2018-08-30T12:54:56.384Z,68.5
2018-08-30T12:55:46.335Z,68.5
2018-08-30T12:56:36.793Z,68.5
2018-08-30T12:57:26.337Z,68.6
2018-08-30T12:58:17.891Z,68.5
2018-08-30T12:59:07.179Z,68.5
2018-08-30T12:59:57.251Z,68.6
2018-08-30T13:00:46.420Z,68.6
2018-08-30T13:01:37.615Z,68.6
2018-08-30T13:02:26.873Z,68.6
2018-08-30T13:03:17.963Z,68.6
2018-08-30T13:04:07.455Z,68.6
2018-08-30T13:04:57.945Z,68.6
2018-08-30T13:05:48.922Z,68.6
2018-08-30T13:06:37.454Z,68.6
2018-08-30T13:07:27.695Z,68.6
2018-08-30T13:08:18.254Z,68.6
2018-08-30T13:09:08.808Z,68.6
2018-08-30T13:09:58.497Z,68.6
2018-08-30T13:10:49.326Z,68.6
2018-08-30T13:11:38.868Z,68.6
2018-08-30T13:12:28.979Z,68.6
2018-08-30T13:13:18.511Z,68.6
2018-08-30T13:14:08.777Z,68.6
2018-08-30T13:14:57.985Z,68.6
2018-08-30T13:15:47.999Z,68.6
2018-08-30T13:16:38.166Z,68.6
2018-08-30T13:17:29.205Z,68.6
2018-08-30T13:18:19.262Z,68.6
2018-08-30T13:19:10.546Z,68.6
2018-08-30T13:19:59.101Z,68.5
2018-08-30T13:20:48.904Z,68.5
2018-08-30T13:21:38.827Z,68.4
2018-08-30T13:22:30.306Z,68.4
2018-08-30T13:23:19.620Z,68.4
2018-08-30T13:24:09.828Z,68.4
2018-08-30T13:25:01.316Z,68.4
2018-08-30T13:25:49.673Z,68.4
2018-08-30T13:26:39.624Z,68.3
2018-08-30T13:27:30.682Z,68.3
2018-08-30T13:28:19.846Z,68.3
2018-08-30T13:29:10.034Z,68.3
2018-08-30T13:29:59.533Z,68.3
2018-08-30T13:30:50.698Z,68.3
2018-08-30T13:31:42.216Z,68.3
2018-08-30T13:32:30.492Z,68.3
2018-08-30T13:33:24.323Z,68.2
2018-08-30T13:34:11.248Z,68.2
2018-08-30T13:35:02.589Z,68.2
2018-08-30T13:35:51.917Z,68.2
2018-08-30T13:36:41.737Z,68.1
2018-08-30T13:37:29.321Z,68.2
2018-08-30T13:38:21.757Z,68.1
2018-08-30T13:39:12.473Z,68.1
2018-08-30T13:40:01.785Z,68.1
2018-08-30T13:40:49.934Z,68.1
2018-08-30T13:41:39.954Z,68.1
2018-08-30T13:42:32.273Z,68.1
2018-08-30T13:43:21.685Z,68
2018-08-30T13:44:11.780Z,68
2018-08-30T13:45:02.075Z,68
2018-08-30T13:45:52.477Z,68
2018-08-30T13:46:41.856Z,67.9
2018-08-30T13:47:32.148Z,67.9
2018-08-30T13:48:21.142Z,67.9
2018-08-30T13:49:12.497Z,67.9
2018-08-30T13:50:02.181Z,67.9
2018-08-30T13:50:52.939Z,67.8
2018-08-30T13:51:42.842Z,67.8
2018-08-30T13:52:30.408Z,67.8
2018-08-30T13:53:23.415Z,67.8
2018-08-30T13:54:13.523Z,67.7
2018-08-30T13:55:02.239Z,67.6
2018-08-30T13:55:54.038Z,67.6
2018-08-30T13:56:43.543Z,67.6
2018-08-30T13:57:34.952Z,67.5
2018-08-30T13:58:22.868Z,67.5
2018-08-30T13:59:14.343Z,67.4
2018-08-30T14:00:03.912Z,67.4
2018-08-30T14:00:53.958Z,67.4
2018-08-30T14:01:43.826Z,67.3
2018-08-30T14:02:32.009Z,67.3
2018-08-30T14:03:22.128Z,67.3
2018-08-30T14:04:13.488Z,67.2
2018-08-30T14:05:02.666Z,67.2
2018-08-30T14:05:52.557Z,67.1
2018-08-30T14:06:43.914Z,67.1
2018-08-30T14:07:33.221Z,67
2018-08-30T14:08:22.525Z,67
2018-08-30T14:09:12.779Z,66.9
2018-08-30T14:10:05.089Z,66.9
2018-08-30T14:10:53.509Z,66.8
2018-08-30T14:11:44.880Z,66.8
2018-08-30T14:12:33.467Z,66.8
2018-08-30T14:13:22.918Z,66.7
2018-08-30T14:14:14.600Z,66.6
2018-08-30T14:15:04.468Z,66.6
2018-08-30T14:15:52.436Z,66.5
2018-08-30T14:16:43.044Z,66.5
2018-08-30T14:17:32.314Z,66.4
2018-08-30T14:18:22.747Z,66.4
2018-08-30T14:19:12.674Z,66.3
2018-08-30T14:20:02.829Z,66.3
2018-08-30T14:20:52.851Z,66.2
2018-08-30T14:21:42.927Z,66.1
2018-08-30T14:22:32.928Z,66.1
2018-08-30T14:23:23.373Z,66
2018-08-30T14:24:12.856Z,65.9
2018-08-30T14:25:03.523Z,65.9
2018-08-30T14:25:52.879Z,65.8
2018-08-30T14:26:43.526Z,65.8
2018-08-30T14:27:33.328Z,65.7
2018-08-30T14:28:23.158Z,65.6
2018-08-30T14:29:13.153Z,65.6
2018-08-30T14:30:03.293Z,65.5
2018-08-30T14:30:53.634Z,65.4
2018-08-30T14:31:43.625Z,65.3
2018-08-30T14:32:33.748Z,65.3
2018-08-30T14:33:23.483Z,65.2
2018-08-30T14:34:13.814Z,65.1
2018-08-30T14:35:04.008Z,65.1
2018-08-30T14:35:53.693Z,65
2018-08-30T14:36:44.071Z,64.9
2018-08-30T14:37:34.345Z,64.8
2018-08-30T14:38:24.192Z,64.8
2018-08-30T14:39:14.529Z,64.7
2018-08-30T14:40:04.360Z,64.6
2018-08-30T14:41:09.309Z,64.6
2018-08-30T14:41:45.134Z,64.4
2018-08-30T14:42:34.470Z,64.4
2018-08-30T14:43:24.631Z,64.3
2018-08-30T14:44:14.659Z,64.3
2018-08-30T14:45:04.680Z,64.2
2018-08-30T14:45:54.929Z,64.1
2018-08-30T14:46:44.841Z,64
2018-08-30T14:47:36.081Z,63.9
2018-08-30T14:48:25.040Z,63.8
2018-08-30T14:49:14.841Z,63.8
2018-08-30T14:50:04.787Z,63.7
2018-08-30T14:50:55.175Z,63.6
2018-08-30T14:51:45.321Z,63.6
2018-08-30T14:52:34.743Z,63.4
2018-08-30T14:53:26.166Z,63.4
2018-08-30T14:54:15.599Z,63.3
2018-08-30T14:55:05.457Z,63.2
2018-08-30T14:55:55.698Z,63.1
2018-08-30T14:56:45.617Z,63.1
2018-08-30T14:57:35.730Z,62.9
2018-08-30T14:58:25.717Z,62.9
2018-08-30T14:59:16.248Z,62.8
2018-08-30T15:00:06.179Z,62.7
2018-08-30T15:00:55.384Z,62.6
2018-08-30T15:01:45.985Z,62.5
2018-08-30T15:02:35.780Z,62.4
2018-08-30T15:03:25.930Z,62.3
2018-08-30T15:04:16.206Z,62.3
2018-08-30T15:05:06.142Z,62.2
2018-08-30T15:05:56.486Z,62.1
2018-08-30T15:06:46.389Z,62
2018-08-30T15:07:36.439Z,61.9
2018-08-30T15:08:26.308Z,61.8
2018-08-30T15:09:16.571Z,61.7
2018-08-30T15:10:06.076Z,61.6
2018-08-30T15:10:56.447Z,61.5
2018-08-30T15:11:46.863Z,61.4
2018-08-30T15:12:37.492Z,61.4
2018-08-30T15:13:27.037Z,61.3
2018-08-30T15:14:17.156Z,61.2
2018-08-30T15:15:07.042Z,61.1
2018-08-30T15:15:57.140Z,61
2018-08-30T15:16:47.222Z,60.9
2018-08-30T15:17:37.253Z,60.8
2018-08-30T15:18:27.316Z,60.7
2018-08-30T15:19:17.388Z,60.6
2018-08-30T15:20:07.980Z,60.5
2018-08-30T15:20:57.578Z,60.4
2018-08-30T15:21:47.640Z,60.3
2018-08-30T15:22:37.720Z,60.3
2018-08-30T15:23:27.891Z,60.2
2018-08-30T15:24:17.764Z,60.1
2018-08-30T15:25:07.823Z,59.9
2018-08-30T15:25:57.349Z,59.9
2018-08-30T15:26:48.450Z,59.8
2018-08-30T15:27:37.878Z,59.7
2018-08-30T15:28:28.005Z,59.6
2018-08-30T15:29:18.618Z,59.6
2018-08-30T15:30:08.502Z,59.4
2018-08-30T15:30:58.284Z,59.4
2018-08-30T15:31:48.422Z,59.3
2018-08-30T15:32:38.188Z,59.1
2018-08-30T15:33:28.507Z,59.1
2018-08-30T15:34:18.282Z,59
2018-08-30T15:35:09.297Z,58.9
2018-08-30T15:35:58.401Z,58.8
2018-08-30T15:36:48.931Z,58.7
2018-08-30T15:37:38.880Z,58.6
2018-08-30T15:38:29.676Z,58.5
2018-08-30T15:39:18.950Z,58.4
2018-08-30T15:40:23.679Z,58.3
2018-08-30T15:40:59.182Z,58.2
2018-08-30T15:41:49.155Z,58.1
2018-08-30T15:42:39.283Z,58.1
2018-08-30T15:43:29.373Z,57.9
2018-08-30T15:44:19.437Z,57.8
2018-08-30T15:45:59.501Z,57.6
2018-08-30T15:46:49.303Z,57.6
2018-08-30T15:47:39.352Z,57.4
2018-08-30T15:48:29.449Z,57.3
2018-08-30T15:49:19.810Z,57.2
2018-08-30T15:50:09.810Z,57.1
2018-08-30T15:50:59.875Z,57
2018-08-30T15:51:49.938Z,56.9
2018-08-30T15:52:40.013Z,56.8
2018-08-30T15:53:30.128Z,56.8
2018-08-30T15:54:20.391Z,56.6
2018-08-30T15:55:10.225Z,56.5
2018-08-30T15:55:59.979Z,56.4
2018-08-30T15:56:50.326Z,56.4
2018-08-30T16:15:35.232Z,47.9
2018-08-30T16:16:25.536Z,47.5
2018-08-30T16:17:16.281Z,47.2
2018-08-30T16:18:05.063Z,46.9
2018-08-30T16:18:55.657Z,46.6
2018-08-30T16:19:45.577Z,46.2
2018-08-30T16:20:36.024Z,45.9
2018-08-30T16:21:25.905Z,45.6
2018-08-30T16:22:15.727Z,45.3
2018-08-30T16:23:06.271Z,45
2018-08-30T16:23:56.089Z,44.7
2018-08-30T16:24:46.525Z,44.4
2018-08-30T16:25:36.029Z,44.1
2018-08-30T16:26:26.289Z,43.9
2018-08-30T16:27:16.351Z,43.6
2018-08-30T16:28:06.475Z,43.3
2018-08-30T16:28:57.283Z,43.1
2018-08-30T16:29:46.268Z,42.8
2018-08-30T16:30:37.079Z,42.6
2018-08-30T16:31:27.469Z,42.3
2018-08-30T16:32:16.890Z,42
2018-08-30T16:33:06.528Z,41.8
2018-08-30T16:33:56.881Z,41.6
2018-08-30T16:34:47.101Z,41.3
2018-08-30T16:35:37.020Z,41.1
2018-08-30T16:36:27.167Z,40.8
2018-08-30T16:37:17.225Z,40.6
2018-08-30T16:38:06.909Z,40.4
2018-08-30T16:38:56.982Z,40.1
2018-08-30T16:39:47.533Z,39.9
2018-08-30T16:40:37.397Z,39.7
2018-08-30T16:41:28.226Z,39.5
2018-08-30T16:42:17.255Z,39.3
2018-08-30T16:43:07.586Z,39.1
2018-08-30T16:43:57.975Z,38.8
2018-08-30T16:44:47.807Z,38.7
2018-08-30T16:45:37.519Z,38.4
2018-08-30T16:46:27.652Z,38.3
2018-08-30T16:47:18.446Z,38.1
2018-08-30T16:48:07.997Z,37.9
2018-08-30T16:48:58.655Z,37.7
2018-08-30T16:49:47.917Z,37.5
2018-08-30T16:50:38.186Z,37.3
2018-08-30T16:51:28.273Z,37.1
2018-08-30T16:52:18.059Z,36.9
2018-08-30T16:53:08.782Z,36.8
2018-08-30T16:53:58.768Z,36.6
2018-08-30T16:54:48.226Z,36.4
2018-08-30T16:55:39.207Z,36.3
2018-08-30T16:56:29.042Z,36.1
2018-08-30T16:57:18.704Z,35.9
2018-08-30T16:58:08.499Z,35.8
2018-08-30T16:58:58.917Z,35.6
2018-08-30T16:59:48.902Z,35.4
2018-08-30T17:00:38.977Z,35.3
2018-08-30T17:01:28.631Z,35.1
2018-08-30T17:02:19.822Z,34.9
2018-08-30T17:03:08.873Z,34.8
2018-08-30T17:04:00.059Z,34.6
2018-08-30T17:04:49.283Z,34.5
2018-08-30T17:05:39.125Z,34.3
2018-08-30T17:06:29.529Z,34.2
2018-08-30T17:07:19.581Z,34.1
2018-08-30T17:08:09.008Z,33.9
2018-08-30T17:08:59.421Z,33.8
2018-08-30T17:09:49.406Z,33.6
2018-08-30T17:10:39.493Z,33.4
2018-08-30T17:11:29.245Z,33.3
2018-08-30T17:12:19.896Z,33.2
2018-08-30T17:13:09.976Z,33
2018-08-30T17:13:59.728Z,32.9
2018-08-30T17:14:50.200Z,32.8
2018-08-30T17:15:40.253Z,32.6
2018-08-30T17:16:30.208Z,32.4
2018-08-30T17:17:20.363Z,32.3
2018-08-30T17:18:10.341Z,32.2
2018-08-30T17:19:00.153Z,32.1
2018-08-30T17:19:50.178Z,31.9
2018-08-30T17:20:40.525Z,31.8
2018-08-30T17:21:31.470Z,31.7
2018-08-30T17:22:20.658Z,31.6
2018-08-30T17:23:10.750Z,31.4
2018-08-30T17:24:00.819Z,31.3
2018-08-30T17:24:51.165Z,31.2
2018-08-30T17:25:40.932Z,31.1
2018-08-30T17:26:30.730Z,30.9
2018-08-30T17:27:20.780Z,30.8
2018-08-30T17:28:11.126Z,30.8
2018-08-30T17:29:01.199Z,30.6
2018-08-30T17:29:50.950Z,30.5
2018-08-30T17:30:41.309Z,30.4
2018-08-30T17:31:31.155Z,30.3
2018-08-30T17:32:21.411Z,30.2
2018-08-30T17:33:11.539Z,30.1
2018-08-30T17:34:01.603Z,30
2018-08-30T17:34:51.644Z,29.9
2018-08-30T17:35:41.773Z,29.8
2018-08-30T17:36:31.773Z,29.7
2018-08-30T17:37:21.837Z,29.6
2018-08-30T17:38:11.896Z,29.4
2018-08-30T17:39:01.973Z,29.4
2018-08-30T17:39:51.772Z,29.3
2018-08-30T17:40:42.210Z,29.2
2018-08-30T17:41:32.181Z,29.1
2018-08-30T17:42:23.316Z,28.9
2018-08-30T17:43:12.305Z,28.9
2018-08-30T17:44:02.469Z,28.8
2018-08-30T17:44:52.426Z,28.7
2018-08-30T17:45:42.911Z,28.6
2018-08-30T17:46:32.316Z,28.5
2018-08-30T17:47:22.656Z,28.4
2018-08-30T17:48:12.758Z,28.3
2018-08-30T17:49:02.492Z,28.3
2018-08-30T17:49:52.913Z,28.2
2018-08-30T17:50:42.890Z,28.1
2018-08-30T17:51:32.741Z,28
2018-08-30T17:52:23.037Z,27.9
2018-08-30T17:54:02.861Z,27.8
2018-08-30T17:54:53.208Z,27.7
2018-08-30T17:55:43.594Z,27.6
2018-08-30T17:56:33.358Z,27.5
2018-08-30T17:57:23.155Z,27.4
2018-08-30T17:58:13.480Z,27.4
2018-08-30T17:59:03.553Z,27.3
2018-08-30T17:59:54.118Z,27.2
2018-08-30T18:00:43.405Z,27.1
2018-08-30T18:01:34.318Z,27.1
2018-08-30T18:02:23.804Z,27
2018-08-30T18:03:14.425Z,26.9
2018-08-30T18:04:03.728Z,26.9
2018-08-30T18:04:54.022Z,26.8
2018-08-30T18:05:44.128Z,26.8
2018-08-30T18:06:34.639Z,26.7
2018-08-30T18:07:24.320Z,26.6
2018-08-30T18:08:14.267Z,26.6
2018-08-30T18:09:04.227Z,26.4
2018-08-30T18:09:54.650Z,26.4
2018-08-30T18:10:44.170Z,26.3
2018-08-30T18:11:34.557Z,26.3
2018-08-30T18:12:24.660Z,26.3
2018-08-30T18:13:14.361Z,26.1
2018-08-30T18:14:04.704Z,26.1
2018-08-30T18:14:54.792Z,26.1
2018-08-30T18:15:44.839Z,26
2018-08-30T18:16:34.919Z,25.9
2018-08-30T18:17:24.979Z,25.9
2018-08-30T18:18:15.169Z,25.8
2018-08-30T18:19:05.097Z,25.8